sensor_id;sensor_type;location;lat;lon;timestamp;temperature;humidity
16263;DHT22;8239;48.594;8.598;2023-07-08T00:00:23;15.00;98.00
16263;DHT22;8239;48.594;8.598;2023-07-08T00:02:50;14.90;98.50
16263;DHT22;8239;48.594;8.598;2023-07-08T00:05:20;14.80;99.00
16263;DHT22;8239;48.594;8.598;2023-07-08T00:07:47;14.70;99.40
16263;DHT22;8239;48.594;8.598;2023-07-08T00:10:16;14.70;99.90
16263;DHT22;8239;48.594;8.598;2023-07-08T00:12:45;14.70;99.90
16263;DHT22;8239;48.594;8.598;2023-07-08T00:15:14;14.60;99.90
16263;DHT22;8239;48.594;8.598;2023-07-08T00:17:42;14.60;99.90
16263;DHT22;8239;48.594;8.598;2023-07-08T00:20:12;14.60;99.90
16263;DHT22;8239;48.594;8.598;2023-07-08T00:22:41;14.50;99.90
16263;DHT22;8239;48.594;8.598;2023-07-08T00:25:08;14.50;99.90
16263;DHT22;8239;48.594;8.598;2023-07-08T00:27:35;14.50;99.90
16263;DHT22;8239;48.594;8.598;2023-07-08T00:30:22;14.50;99.90
16263;DHT22;8239;48.594;8.598;2023-07-08T00:32:49;14.50;99.90
16263;DHT22;8239;48.594;8.598;2023-07-08T00:35:20;14.40;99.90
16263;DHT22;8239;48.594;8.598;2023-07-08T00:37:49;14.40;99.90
16263;DHT22;8239;48.594;8.598;2023-07-08T00:40:19;14.30;99.90
16263;DHT22;8239;48.594;8.598;2023-07-08T00:42:47;14.30;99.90
16263;DHT22;8239;48.594;8.598;2023-07-08T00:45:34;14.20;99.90
16263;DHT22;8239;48.594;8.598;2023-07-08T00:48:07;14.20;99.90
16263;DHT22;8239;48.594;8.598;2023-07-08T00:50:35;14.20;99.90
16263;DHT22;8239;48.594;8.598;2023-07-08T00:53:22;14.20;99.90
16263;DHT22;8239;48.594;8.598;2023-07-08T00:55:49;14.20;99.90
16263;DHT22;8239;48.594;8.598;2023-07-08T00:58:19;14.20;99.90
16263;DHT22;8239;48.594;8.598;2023-07-08T01:00:49;14.20;99.90
16263;DHT22;8239;48.594;8.598;2023-07-08T01:03:18;14.10;99.90
16263;DHT22;8239;48.594;8.598;2023-07-08T01:05:47;14.10;99.90
16263;DHT22;8239;48.594;8.598;2023-07-08T01:08:14;14.00;99.90
16263;DHT22;8239;48.594;8.598;2023-07-08T01:10:45;14.00;99.90
16263;DHT22;8239;48.594;8.598;2023-07-08T01:13:14;13.90;99.90
16263;DHT22;8239;48.594;8.598;2023-07-08T01:15:43;13.80;99.90
16263;DHT22;8239;48.594;8.598;2023-07-08T01:18:16;13.80;99.90
16263;DHT22;8239;48.594;8.598;2023-07-08T01:20:47;13.80;99.90
16263;DHT22;8239;48.594;8.598;2023-07-08T01:23:15;13.80;99.90
16263;DHT22;8239;48.594;8.598;2023-07-08T01:25:44;13.80;99.90
16263;DHT22;8239;48.594;8.598;2023-07-08T01:28:12;13.80;99.90
16263;DHT22;8239;48.594;8.598;2023-07-08T01:30:41;13.70;99.90
16263;DHT22;8239;48.594;8.598;2023-07-08T01:33:15;13.70;99.90
16263;DHT22;8239;48.594;8.598;2023-07-08T01:35:43;13.70;99.90
16263;DHT22;8239;48.594;8.598;2023-07-08T01:38:11;13.70;99.90
16263;DHT22;8239;48.594;8.598;2023-07-08T01:40:48;13.60;99.90
16263;DHT22;8239;48.594;8.598;2023-07-08T01:43:15;13.60;99.90
16263;DHT22;8239;48.594;8.598;2023-07-08T01:45:43;13.50;99.90
16263;DHT22;8239;48.594;8.598;2023-07-08T01:48:11;13.50;99.90
16263;DHT22;8239;48.594;8.598;2023-07-08T01:50:42;13.50;99.90
16263;DHT22;8239;48.594;8.598;2023-07-08T01:53:15;13.50;99.90
16263;DHT22;8239;48.594;8.598;2023-07-08T01:55:43;13.50;99.90
16263;DHT22;8239;48.594;8.598;2023-07-08T01:58:10;13.50;99.90
16263;DHT22;8239;48.594;8.598;2023-07-08T02:00:37;13.40;99.90
16263;DHT22;8239;48.594;8.598;2023-07-08T02:03:04;13.40;99.90
16263;DHT22;8239;48.594;8.598;2023-07-08T02:05:31;13.40;99.90
16263;DHT22;8239;48.594;8.598;2023-07-08T02:07:58;13.40;99.90
16263;DHT22;8239;48.594;8.598;2023-07-08T02:10:25;13.30;99.90
16263;DHT22;8239;48.594;8.598;2023-07-08T02:12:53;13.30;99.90
16263;DHT22;8239;48.594;8.598;2023-07-08T02:15:20;13.30;99.90
16263;DHT22;8239;48.594;8.598;2023-07-08T02:17:47;13.30;99.90
16263;DHT22;8239;48.594;8.598;2023-07-08T02:20:15;13.20;99.90
16263;DHT22;8239;48.594;8.598;2023-07-08T02:22:42;13.10;99.90
16263;DHT22;8239;48.594;8.598;2023-07-08T02:25:09;13.10;99.90
16263;DHT22;8239;48.594;8.598;2023-07-08T02:27:37;13.10;99.90
16263;DHT22;8239;48.594;8.598;2023-07-08T02:30:06;13.00;99.90
16263;DHT22;8239;48.594;8.598;2023-07-08T02:32:33;13.00;99.90
16263;DHT22;8239;48.594;8.598;2023-07-08T02:35:01;13.00;99.90
16263;DHT22;8239;48.594;8.598;2023-07-08T02:37:28;12.90;99.90
16263;DHT22;8239;48.594;8.598;2023-07-08T02:39:55;12.90;99.90
16263;DHT22;8239;48.594;8.598;2023-07-08T02:42:22;12.80;99.90
16263;DHT22;8239;48.594;8.598;2023-07-08T02:44:49;12.90;99.90
16263;DHT22;8239;48.594;8.598;2023-07-08T02:47:18;12.80;99.90
16263;DHT22;8239;48.594;8.598;2023-07-08T02:49:44;12.80;99.90
16263;DHT22;8239;48.594;8.598;2023-07-08T02:52:12;12.80;99.90
16263;DHT22;8239;48.594;8.598;2023-07-08T02:54:39;12.80;99.90
16263;DHT22;8239;48.594;8.598;2023-07-08T02:57:06;12.80;99.90
16263;DHT22;8239;48.594;8.598;2023-07-08T02:59:33;12.80;99.90
16263;DHT22;8239;48.594;8.598;2023-07-08T03:02:00;12.80;99.90
16263;DHT22;8239;48.594;8.598;2023-07-08T03:04:28;12.80;99.90
16263;DHT22;8239;48.594;8.598;2023-07-08T03:06:55;12.70;99.90
16263;DHT22;8239;48.594;8.598;2023-07-08T03:09:22;12.70;99.90
16263;DHT22;8239;48.594;8.598;2023-07-08T03:11:49;12.60;99.90
16263;DHT22;8239;48.594;8.598;2023-07-08T03:14:16;12.60;99.90
16263;DHT22;8239;48.594;8.598;2023-07-08T03:16:43;12.60;99.90
16263;DHT22;8239;48.594;8.598;2023-07-08T03:19:11;12.60;99.90
16263;DHT22;8239;48.594;8.598;2023-07-08T03:21:41;12.60;99.90
16263;DHT22;8239;48.594;8.598;2023-07-08T03:24:09;12.60;99.90
16263;DHT22;8239;48.594;8.598;2023-07-08T03:26:37;12.60;99.90
16263;DHT22;8239;48.594;8.598;2023-07-08T03:29:07;12.60;99.90
16263;DHT22;8239;48.594;8.598;2023-07-08T03:31:37;12.60;99.90
16263;DHT22;8239;48.594;8.598;2023-07-08T03:34:04;12.60;99.90
16263;DHT22;8239;48.594;8.598;2023-07-08T03:36:31;12.60;99.90
16263;DHT22;8239;48.594;8.598;2023-07-08T03:38:59;12.60;99.90
16263;DHT22;8239;48.594;8.598;2023-07-08T03:41:26;12.50;99.90
16263;DHT22;8239;48.594;8.598;2023-07-08T03:43:53;12.60;99.90
16263;DHT22;8239;48.594;8.598;2023-07-08T03:46:21;12.60;99.90
16263;DHT22;8239;48.594;8.598;2023-07-08T03:48:49;12.60;99.90
16263;DHT22;8239;48.594;8.598;2023-07-08T03:51:20;12.60;99.90
16263;DHT22;8239;48.594;8.598;2023-07-08T03:53:48;12.60;99.90
16263;DHT22;8239;48.594;8.598;2023-07-08T03:56:16;12.70;99.90
16263;DHT22;8239;48.594;8.598;2023-07-08T03:58:43;12.80;99.90
16263;DHT22;8239;48.594;8.598;2023-07-08T04:01:14;12.80;99.90
16263;DHT22;8239;48.594;8.598;2023-07-08T04:03:41;12.90;99.90
16263;DHT22;8239;48.594;8.598;2023-07-08T04:06:08;12.90;99.90
16263;DHT22;8239;48.594;8.598;2023-07-08T04:08:35;13.00;99.90
16263;DHT22;8239;48.594;8.598;2023-07-08T04:11:02;13.10;99.90
16263;DHT22;8239;48.594;8.598;2023-07-08T04:13:31;13.20;99.90
16263;DHT22;8239;48.594;8.598;2023-07-08T04:16:02;13.30;99.90
16263;DHT22;8239;48.594;8.598;2023-07-08T04:18:30;13.40;99.90
16263;DHT22;8239;48.594;8.598;2023-07-08T04:20:57;13.50;99.90
16263;DHT22;8239;48.594;8.598;2023-07-08T04:23:25;13.50;99.90
16263;DHT22;8239;48.594;8.598;2023-07-08T04:25:54;13.70;99.90
16263;DHT22;8239;48.594;8.598;2023-07-08T04:28:22;13.80;99.90
16263;DHT22;8239;48.594;8.598;2023-07-08T04:30:51;13.90;99.90
16263;DHT22;8239;48.594;8.598;2023-07-08T04:33:18;14.10;99.90
16263;DHT22;8239;48.594;8.598;2023-07-08T04:35:45;14.30;99.90
16263;DHT22;8239;48.594;8.598;2023-07-08T04:38:17;14.40;99.90
16263;DHT22;8239;48.594;8.598;2023-07-08T04:40:44;14.60;99.90
16263;DHT22;8239;48.594;8.598;2023-07-08T04:43:11;14.80;99.90
16263;DHT22;8239;48.594;8.598;2023-07-08T04:45:39;14.90;99.90
16263;DHT22;8239;48.594;8.598;2023-07-08T04:48:12;14.90;99.90
16263;DHT22;8239;48.594;8.598;2023-07-08T04:50:40;15.00;99.90
16263;DHT22;8239;48.594;8.598;2023-07-08T04:53:08;15.20;99.90
16263;DHT22;8239;48.594;8.598;2023-07-08T04:55:35;15.30;99.90
16263;DHT22;8239;48.594;8.598;2023-07-08T04:58:03;15.40;99.90
16263;DHT22;8239;48.594;8.598;2023-07-08T05:00:30;15.60;99.90
16263;DHT22;8239;48.594;8.598;2023-07-08T05:02:56;15.70;99.90
16263;DHT22;8239;48.594;8.598;2023-07-08T05:05:25;15.80;99.90
16263;DHT22;8239;48.594;8.598;2023-07-08T05:07:52;15.90;99.90
16263;DHT22;8239;48.594;8.598;2023-07-08T05:10:20;16.00;99.90
16263;DHT22;8239;48.594;8.598;2023-07-08T05:12:48;16.10;99.90
16263;DHT22;8239;48.594;8.598;2023-07-08T05:15:15;16.30;99.90
16263;DHT22;8239;48.594;8.598;2023-07-08T05:17:42;16.40;99.80
16263;DHT22;8239;48.594;8.598;2023-07-08T05:20:11;16.60;99.10
16263;DHT22;8239;48.594;8.598;2023-07-08T05:22:40;16.70;98.80
16263;DHT22;8239;48.594;8.598;2023-07-08T05:25:09;16.90;98.60
16263;DHT22;8239;48.594;8.598;2023-07-08T05:27:36;17.00;98.20
16263;DHT22;8239;48.594;8.598;2023-07-08T05:30:05;17.10;97.70
16263;DHT22;8239;48.594;8.598;2023-07-08T05:32:32;17.10;97.50
16263;DHT22;8239;48.594;8.598;2023-07-08T05:34:59;17.20;97.40
16263;DHT22;8239;48.594;8.598;2023-07-08T05:37:26;17.30;97.20
16263;DHT22;8239;48.594;8.598;2023-07-08T05:39:56;17.40;97.10
16263;DHT22;8239;48.594;8.598;2023-07-08T05:42:26;17.40;97.30
16263;DHT22;8239;48.594;8.598;2023-07-08T05:44:53;17.50;97.60
16263;DHT22;8239;48.594;8.598;2023-07-08T05:47:20;17.60;97.70
16263;DHT22;8239;48.594;8.598;2023-07-08T05:49:48;17.70;97.70
16263;DHT22;8239;48.594;8.598;2023-07-08T05:52:15;17.90;97.80
16263;DHT22;8239;48.594;8.598;2023-07-08T05:54:42;18.10;97.60
16263;DHT22;8239;48.594;8.598;2023-07-08T05:57:10;18.30;97.30
16263;DHT22;8239;48.594;8.598;2023-07-08T05:59:38;18.50;97.10
16263;DHT22;8239;48.594;8.598;2023-07-08T06:02:06;18.80;96.70
16263;DHT22;8239;48.594;8.598;2023-07-08T06:04:34;19.00;96.20
16263;DHT22;8239;48.594;8.598;2023-07-08T06:07:01;19.30;96.00
16263;DHT22;8239;48.594;8.598;2023-07-08T06:09:27;19.50;95.40
16263;DHT22;8239;48.594;8.598;2023-07-08T06:11:55;19.70;95.00
16263;DHT22;8239;48.594;8.598;2023-07-08T06:14:23;19.90;94.80
16263;DHT22;8239;48.594;8.598;2023-07-08T06:16:50;20.00;94.30
16263;DHT22;8239;48.594;8.598;2023-07-08T06:19:17;20.20;94.10
16263;DHT22;8239;48.594;8.598;2023-07-08T06:21:44;20.30;91.10
16263;DHT22;8239;48.594;8.598;2023-07-08T06:24:11;20.20;90.90
16263;DHT22;8239;48.594;8.598;2023-07-08T06:26:38;20.20;91.40
16263;DHT22;8239;48.594;8.598;2023-07-08T06:29:05;20.20;91.60
16263;DHT22;8239;48.594;8.598;2023-07-08T06:31:34;20.40;91.90
16263;DHT22;8239;48.594;8.598;2023-07-08T06:34:01;20.40;91.10
16263;DHT22;8239;48.594;8.598;2023-07-08T06:36:30;20.40;91.10
16263;DHT22;8239;48.594;8.598;2023-07-08T06:38:57;20.60;91.20
16263;DHT22;8239;48.594;8.598;2023-07-08T06:41:24;20.70;91.40
16263;DHT22;8239;48.594;8.598;2023-07-08T06:43:51;20.80;90.90
16263;DHT22;8239;48.594;8.598;2023-07-08T06:46:19;21.00;90.80
16263;DHT22;8239;48.594;8.598;2023-07-08T06:48:47;21.30;90.10
16263;DHT22;8239;48.594;8.598;2023-07-08T06:51:14;21.50;89.60
16263;DHT22;8239;48.594;8.598;2023-07-08T06:53:41;21.60;88.80
16263;DHT22;8239;48.594;8.598;2023-07-08T06:56:09;21.90;87.30
16263;DHT22;8239;48.594;8.598;2023-07-08T06:58:36;22.10;85.00
16263;DHT22;8239;48.594;8.598;2023-07-08T07:01:03;22.30;84.00
16263;DHT22;8239;48.594;8.598;2023-07-08T07:03:30;22.40;83.70
16263;DHT22;8239;48.594;8.598;2023-07-08T07:05:58;22.50;83.50
16263;DHT22;8239;48.594;8.598;2023-07-08T07:08:25;22.60;83.10
16263;DHT22;8239;48.594;8.598;2023-07-08T07:10:52;22.80;82.00
16263;DHT22;8239;48.594;8.598;2023-07-08T07:13:19;22.90;81.00
16263;DHT22;8239;48.594;8.598;2023-07-08T07:15:48;23.00;80.20
16263;DHT22;8239;48.594;8.598;2023-07-08T07:18:18;23.30;79.70
16263;DHT22;8239;48.594;8.598;2023-07-08T07:20:48;23.40;78.90
16263;DHT22;8239;48.594;8.598;2023-07-08T07:23:17;23.70;78.40
16263;DHT22;8239;48.594;8.598;2023-07-08T07:25:45;24.00;77.30
16263;DHT22;8239;48.594;8.598;2023-07-08T07:28:13;24.10;78.60
16263;DHT22;8239;48.594;8.598;2023-07-08T07:30:40;24.30;77.40
16263;DHT22;8239;48.594;8.598;2023-07-08T07:33:07;24.40;77.10
16263;DHT22;8239;48.594;8.598;2023-07-08T07:35:34;24.60;76.30
16263;DHT22;8239;48.594;8.598;2023-07-08T07:38:00;25.00;77.00
16263;DHT22;8239;48.594;8.598;2023-07-08T07:40:29;25.50;76.00
16263;DHT22;8239;48.594;8.598;2023-07-08T07:42:56;26.10;74.60
16263;DHT22;8239;48.594;8.598;2023-07-08T07:45:23;26.70;71.30
16263;DHT22;8239;48.594;8.598;2023-07-08T07:47:50;26.90;67.20
16263;DHT22;8239;48.594;8.598;2023-07-08T07:50:17;26.70;67.00
16263;DHT22;8239;48.594;8.598;2023-07-08T07:52:44;26.60;67.20
16263;DHT22;8239;48.594;8.598;2023-07-08T07:55:11;26.40;66.90
16263;DHT22;8239;48.594;8.598;2023-07-08T07:57:39;25.90;66.60
16263;DHT22;8239;48.594;8.598;2023-07-08T08:03:19;25.70;69.70
16263;DHT22;8239;48.594;8.598;2023-07-08T08:05:47;26.40;67.10
16263;DHT22;8239;48.594;8.598;2023-07-08T08:08:44;26.70;64.90
16263;DHT22;8239;48.594;8.598;2023-07-08T08:11:24;27.00;64.70
16263;DHT22;8239;48.594;8.598;2023-07-08T08:14:15;27.30;64.20
16263;DHT22;8239;48.594;8.598;2023-07-08T08:17:13;28.10;60.90
16263;DHT22;8239;48.594;8.598;2023-07-08T08:19:46;28.80;59.00
16263;DHT22;8239;48.594;8.598;2023-07-08T08:22:28;29.30;57.30
16263;DHT22;8239;48.594;8.598;2023-07-08T08:24:56;29.60;56.30
16263;DHT22;8239;48.594;8.598;2023-07-08T08:27:23;29.20;53.20
16263;DHT22;8239;48.594;8.598;2023-07-08T08:29:53;28.90;54.40
16263;DHT22;8239;48.594;8.598;2023-07-08T08:32:23;28.60;56.70
16263;DHT22;8239;48.594;8.598;2023-07-08T08:34:51;28.30;58.60
16263;DHT22;8239;48.594;8.598;2023-07-08T08:37:21;28.00;59.20
16263;DHT22;8239;48.594;8.598;2023-07-08T08:39:53;27.80;58.20
16263;DHT22;8239;48.594;8.598;2023-07-08T08:42:25;27.60;58.70
16263;DHT22;8239;48.594;8.598;2023-07-08T08:48:17;28.10;58.80
16263;DHT22;8239;48.594;8.598;2023-07-08T08:50:51;28.70;58.40
16263;DHT22;8239;48.594;8.598;2023-07-08T08:53:20;29.30;57.60
16263;DHT22;8239;48.594;8.598;2023-07-08T08:55:52;29.90;54.60
16263;DHT22;8239;48.594;8.598;2023-07-08T08:58:34;30.40;54.10
16263;DHT22;8239;48.594;8.598;2023-07-08T09:01:08;31.30;53.00
16263;DHT22;8239;48.594;8.598;2023-07-08T09:03:46;32.30;49.10
16263;DHT22;8239;48.594;8.598;2023-07-08T09:06:35;32.80;47.70
16263;DHT22;8239;48.594;8.598;2023-07-08T09:09:21;32.60;46.30
16263;DHT22;8239;48.594;8.598;2023-07-08T09:12:00;32.20;46.30
16263;DHT22;8239;48.594;8.598;2023-07-08T09:14:35;32.10;47.20
16263;DHT22;8239;48.594;8.598;2023-07-08T09:17:17;32.30;45.90
16263;DHT22;8239;48.594;8.598;2023-07-08T09:22:40;32.70;45.40
16263;DHT22;8239;48.594;8.598;2023-07-08T09:25:21;33.50;45.10
16263;DHT22;8239;48.594;8.598;2023-07-08T09:27:48;35.20;43.10
16263;DHT22;8239;48.594;8.598;2023-07-08T09:32:44;38.40;38.90
16263;DHT22;8239;48.594;8.598;2023-07-08T09:35:19;39.50;36.40
16263;DHT22;8239;48.594;8.598;2023-07-08T09:37:48;40.10;35.00
16263;DHT22;8239;48.594;8.598;2023-07-08T09:40:18;40.60;33.10
16263;DHT22;8239;48.594;8.598;2023-07-08T09:42:48;40.20;29.70
16263;DHT22;8239;48.594;8.598;2023-07-08T09:45:19;39.90;30.60
16263;DHT22;8239;48.594;8.598;2023-07-08T09:47:46;39.70;29.80
16263;DHT22;8239;48.594;8.598;2023-07-08T09:50:19;39.40;29.50
16263;DHT22;8239;48.594;8.598;2023-07-08T09:52:48;39.10;30.80
16263;DHT22;8239;48.594;8.598;2023-07-08T09:55:16;39.10;31.80
16263;DHT22;8239;48.594;8.598;2023-07-08T09:57:44;39.40;31.40
16263;DHT22;8239;48.594;8.598;2023-07-08T10:00:13;39.40;29.40
16263;DHT22;8239;48.594;8.598;2023-07-08T10:02:44;39.20;29.00
16263;DHT22;8239;48.594;8.598;2023-07-08T10:05:17;39.10;29.10
16263;DHT22;8239;48.594;8.598;2023-07-08T10:07:46;38.90;28.40
16263;DHT22;8239;48.594;8.598;2023-07-08T10:10:17;38.70;28.90
16263;DHT22;8239;48.594;8.598;2023-07-08T10:12:53;38.20;29.60
16263;DHT22;8239;48.594;8.598;2023-07-08T10:15:27;37.90;29.80
16263;DHT22;8239;48.594;8.598;2023-07-08T10:17:56;37.50;29.70
16263;DHT22;8239;48.594;8.598;2023-07-08T10:20:24;37.10;30.30
16263;DHT22;8239;48.594;8.598;2023-07-08T10:23:05;36.90;30.60
16263;DHT22;8239;48.594;8.598;2023-07-08T10:25:43;36.60;30.50
16263;DHT22;8239;48.594;8.598;2023-07-08T10:28:24;36.20;31.00
16263;DHT22;8239;48.594;8.598;2023-07-08T10:30:59;35.80;32.00
16263;DHT22;8239;48.594;8.598;2023-07-08T10:33:47;35.50;32.20
16263;DHT22;8239;48.594;8.598;2023-07-08T10:36:23;35.20;33.20
16263;DHT22;8239;48.594;8.598;2023-07-08T10:39:09;34.90;32.10
16263;DHT22;8239;48.594;8.598;2023-07-08T10:41:48;34.70;32.80
16263;DHT22;8239;48.594;8.598;2023-07-08T10:44:25;34.60;33.60
16263;DHT22;8239;48.594;8.598;2023-07-08T10:47:08;35.00;33.90
16263;DHT22;8239;48.594;8.598;2023-07-08T10:49:51;35.20;33.30
16263;DHT22;8239;48.594;8.598;2023-07-08T10:52:37;35.40;33.40
16263;DHT22;8239;48.594;8.598;2023-07-08T10:55:28;35.40;33.60
16263;DHT22;8239;48.594;8.598;2023-07-08T11:01:10;35.40;33.00
16263;DHT22;8239;48.594;8.598;2023-07-08T11:04:13;35.10;34.10
16263;DHT22;8239;48.594;8.598;2023-07-08T11:06:50;34.80;33.00
16263;DHT22;8239;48.594;8.598;2023-07-08T11:09:24;34.70;35.00
16263;DHT22;8239;48.594;8.598;2023-07-08T11:11:58;34.70;34.50
16263;DHT22;8239;48.594;8.598;2023-07-08T11:14:33;34.60;34.00
16263;DHT22;8239;48.594;8.598;2023-07-08T11:17:09;34.60;34.50
16263;DHT22;8239;48.594;8.598;2023-07-08T11:19:46;34.70;34.10
16263;DHT22;8239;48.594;8.598;2023-07-08T11:22:15;34.90;34.40
16263;DHT22;8239;48.594;8.598;2023-07-08T11:24:46;35.20;33.70
16263;DHT22;8239;48.594;8.598;2023-07-08T11:27:16;35.60;32.90
16263;DHT22;8239;48.594;8.598;2023-07-08T11:29:54;35.70;32.70
16263;DHT22;8239;48.594;8.598;2023-07-08T11:32:29;35.70;33.20
16263;DHT22;8239;48.594;8.598;2023-07-08T11:34:58;35.60;31.90
16263;DHT22;8239;48.594;8.598;2023-07-08T11:37:26;35.60;32.40
16263;DHT22;8239;48.594;8.598;2023-07-08T11:39:54;35.70;32.10
16263;DHT22;8239;48.594;8.598;2023-07-08T11:42:29;35.70;32.60
16263;DHT22;8239;48.594;8.598;2023-07-08T11:45:00;35.60;32.10
16263;DHT22;8239;48.594;8.598;2023-07-08T11:50:58;35.70;33.20
16263;DHT22;8239;48.594;8.598;2023-07-08T11:53:38;36.00;31.50
16263;DHT22;8239;48.594;8.598;2023-07-08T11:56:24;36.20;31.00
16263;DHT22;8239;48.594;8.598;2023-07-08T12:01:48;36.00;31.40
16263;DHT22;8239;48.594;8.598;2023-07-08T12:04:29;36.10;31.20
16263;DHT22;8239;48.594;8.598;2023-07-08T12:07:10;36.50;31.80
16263;DHT22;8239;48.594;8.598;2023-07-08T12:09:43;36.40;31.70
16263;DHT22;8239;48.594;8.598;2023-07-08T12:12:21;35.70;32.00
16263;DHT22;8239;48.594;8.598;2023-07-08T12:14:48;34.80;33.60
16263;DHT22;8239;48.594;8.598;2023-07-08T12:17:17;34.10;34.60
16263;DHT22;8239;48.594;8.598;2023-07-08T12:19:46;33.40;35.60
16263;DHT22;8239;48.594;8.598;2023-07-08T12:22:14;32.90;36.10
16263;DHT22;8239;48.594;8.598;2023-07-08T12:24:41;32.60;36.60
16263;DHT22;8239;48.594;8.598;2023-07-08T12:27:11;32.80;36.80
16263;DHT22;8239;48.594;8.598;2023-07-08T12:29:38;33.20;36.20
16263;DHT22;8239;48.594;8.598;2023-07-08T12:32:08;33.70;35.00
16263;DHT22;8239;48.594;8.598;2023-07-08T12:34:37;34.10;33.60
16263;DHT22;8239;48.594;8.598;2023-07-08T12:37:04;34.50;33.60
16263;DHT22;8239;48.594;8.598;2023-07-08T12:39:35;34.80;31.90
16263;DHT22;8239;48.594;8.598;2023-07-08T12:42:04;35.30;31.90
16263;DHT22;8239;48.594;8.598;2023-07-08T12:44:36;35.80;32.80
16263;DHT22;8239;48.594;8.598;2023-07-08T12:47:07;36.30;32.50
16263;DHT22;8239;48.594;8.598;2023-07-08T12:49:36;36.70;31.90
16263;DHT22;8239;48.594;8.598;2023-07-08T12:52:04;37.10;30.20
16263;DHT22;8239;48.594;8.598;2023-07-08T12:54:31;37.30;29.70
16263;DHT22;8239;48.594;8.598;2023-07-08T12:56:59;37.50;30.00
16263;DHT22;8239;48.594;8.598;2023-07-08T12:59:26;37.60;29.50
16263;DHT22;8239;48.594;8.598;2023-07-08T13:01:53;37.70;29.00
16263;DHT22;8239;48.594;8.598;2023-07-08T13:04:21;37.70;28.80
16263;DHT22;8239;48.594;8.598;2023-07-08T13:06:50;37.70;28.80
16263;DHT22;8239;48.594;8.598;2023-07-08T13:09:29;37.80;29.60
16263;DHT22;8239;48.594;8.598;2023-07-08T13:12:01;37.90;30.20
16263;DHT22;8239;48.594;8.598;2023-07-08T13:14:29;37.70;29.20
16263;DHT22;8239;48.594;8.598;2023-07-08T13:16:56;37.40;29.40
16263;DHT22;8239;48.594;8.598;2023-07-08T13:19:23;37.30;29.20
16263;DHT22;8239;48.594;8.598;2023-07-08T13:21:52;37.40;29.10
16263;DHT22;8239;48.594;8.598;2023-07-08T13:24:21;37.50;29.00
16263;DHT22;8239;48.594;8.598;2023-07-08T13:26:49;37.70;29.30
16263;DHT22;8239;48.594;8.598;2023-07-08T13:29:18;38.10;29.00
16263;DHT22;8239;48.594;8.598;2023-07-08T13:31:49;38.00;27.90
16263;DHT22;8239;48.594;8.598;2023-07-08T13:34:17;37.90;28.10
16263;DHT22;8239;48.594;8.598;2023-07-08T13:36:48;37.90;28.30
16263;DHT22;8239;48.594;8.598;2023-07-08T13:39:22;37.60;28.20
16263;DHT22;8239;48.594;8.598;2023-07-08T13:41:51;37.30;28.60
16263;DHT22;8239;48.594;8.598;2023-07-08T13:44:18;37.30;28.80
16263;DHT22;8239;48.594;8.598;2023-07-08T13:46:51;37.50;29.10
16263;DHT22;8239;48.594;8.598;2023-07-08T13:49:25;37.60;29.00
16263;DHT22;8239;48.594;8.598;2023-07-08T13:52:15;37.70;28.50
16263;DHT22;8239;48.594;8.598;2023-07-08T13:54:49;37.80;28.80
16263;DHT22;8239;48.594;8.598;2023-07-08T13:57:23;37.90;29.00
16263;DHT22;8239;48.594;8.598;2023-07-08T13:59:54;37.90;29.00
16263;DHT22;8239;48.594;8.598;2023-07-08T14:02:24;37.90;28.90
16263;DHT22;8239;48.594;8.598;2023-07-08T14:04:53;37.80;29.40
16263;DHT22;8239;48.594;8.598;2023-07-08T14:07:25;37.80;29.40
16263;DHT22;8239;48.594;8.598;2023-07-08T14:09:54;37.70;29.30
16263;DHT22;8239;48.594;8.598;2023-07-08T14:12:21;37.30;29.40
16263;DHT22;8239;48.594;8.598;2023-07-08T14:14:48;36.80;29.70
16263;DHT22;8239;48.594;8.598;2023-07-08T14:17:19;36.50;30.20
16263;DHT22;8239;48.594;8.598;2023-07-08T14:19:47;36.70;29.80
16263;DHT22;8239;48.594;8.598;2023-07-08T14:22:24;36.60;29.50
16263;DHT22;8239;48.594;8.598;2023-07-08T14:24:53;36.60;29.90
16263;DHT22;8239;48.594;8.598;2023-07-08T14:27:21;36.80;30.20
16263;DHT22;8239;48.594;8.598;2023-07-08T14:29:50;36.90;29.90
16263;DHT22;8239;48.594;8.598;2023-07-08T14:32:20;36.60;31.00
16263;DHT22;8239;48.594;8.598;2023-07-08T14:34:52;36.20;32.60
16263;DHT22;8239;48.594;8.598;2023-07-08T14:37:20;35.90;32.20
16263;DHT22;8239;48.594;8.598;2023-07-08T14:39:49;35.60;31.80
16263;DHT22;8239;48.594;8.598;2023-07-08T14:42:19;35.40;32.40
16263;DHT22;8239;48.594;8.598;2023-07-08T14:44:48;35.40;32.30
16263;DHT22;8239;48.594;8.598;2023-07-08T14:47:19;35.40;34.50
16263;DHT22;8239;48.594;8.598;2023-07-08T14:49:46;35.60;35.50
16263;DHT22;8239;48.594;8.598;2023-07-08T14:52:14;35.90;34.10
16263;DHT22;8239;48.594;8.598;2023-07-08T14:54:41;35.90;34.50
16263;DHT22;8239;48.594;8.598;2023-07-08T14:57:16;35.60;35.20
16263;DHT22;8239;48.594;8.598;2023-07-08T14:59:43;35.10;35.00
16263;DHT22;8239;48.594;8.598;2023-07-08T15:02:18;34.40;35.40
16263;DHT22;8239;48.594;8.598;2023-07-08T15:04:46;33.80;37.10
16263;DHT22;8239;48.594;8.598;2023-07-08T15:07:13;33.40;37.10
16263;DHT22;8239;48.594;8.598;2023-07-08T15:09:41;33.00;37.40
16263;DHT22;8239;48.594;8.598;2023-07-08T15:12:10;32.60;37.90
16263;DHT22;8239;48.594;8.598;2023-07-08T15:14:39;32.30;39.30
16263;DHT22;8239;48.594;8.598;2023-07-08T15:17:13;32.00;39.20
16263;DHT22;8239;48.594;8.598;2023-07-08T15:19:42;31.70;40.30
16263;DHT22;8239;48.594;8.598;2023-07-08T15:22:10;31.50;40.30
16263;DHT22;8239;48.594;8.598;2023-07-08T15:24:37;31.20;40.30
16263;DHT22;8239;48.594;8.598;2023-07-08T15:27:05;31.20;41.70
16263;DHT22;8239;48.594;8.598;2023-07-08T15:29:33;31.60;43.80
16263;DHT22;8239;48.594;8.598;2023-07-08T15:32:01;32.30;40.80
16263;DHT22;8239;48.594;8.598;2023-07-08T15:34:29;32.80;40.70
16263;DHT22;8239;48.594;8.598;2023-07-08T15:36:56;33.50;39.80
16263;DHT22;8239;48.594;8.598;2023-07-08T15:39:23;34.20;38.60
16263;DHT22;8239;48.594;8.598;2023-07-08T15:41:50;34.80;36.60
16263;DHT22;8239;48.594;8.598;2023-07-08T15:44:18;35.20;35.20
16263;DHT22;8239;48.594;8.598;2023-07-08T15:46:47;35.40;34.20
16263;DHT22;8239;48.594;8.598;2023-07-08T15:49:18;35.50;33.50
16263;DHT22;8239;48.594;8.598;2023-07-08T15:51:46;35.60;33.40
16263;DHT22;8239;48.594;8.598;2023-07-08T15:54:13;35.70;32.60
16263;DHT22;8239;48.594;8.598;2023-07-08T15:56:41;35.70;32.70
16263;DHT22;8239;48.594;8.598;2023-07-08T15:59:11;35.80;32.80
16263;DHT22;8239;48.594;8.598;2023-07-08T16:01:39;35.90;32.60
16263;DHT22;8239;48.594;8.598;2023-07-08T16:04:14;35.80;32.60
16263;DHT22;8239;48.594;8.598;2023-07-08T16:06:47;35.80;33.20
16263;DHT22;8239;48.594;8.598;2023-07-08T16:09:14;35.70;35.40
16263;DHT22;8239;48.594;8.598;2023-07-08T16:11:41;35.60;34.80
16263;DHT22;8239;48.594;8.598;2023-07-08T16:14:10;35.50;36.10
16263;DHT22;8239;48.594;8.598;2023-07-08T16:16:38;35.10;37.20
16263;DHT22;8239;48.594;8.598;2023-07-08T16:19:05;34.90;38.00
16263;DHT22;8239;48.594;8.598;2023-07-08T16:21:32;34.60;37.70
16263;DHT22;8239;48.594;8.598;2023-07-08T16:24:00;34.60;38.30